Frankford, MO

7:52 PM CDT on July 11, 2014 (GMT -0500)
N0YWD (KMOLOUIS2) Elev 525 ft | 39.44 °N, 91.06 °W | Change Station
Active Advisory: Flood Warning

Current weather conditions updated 10 seconds ago

Clear
Clear
83.3 °F
Feels Like 90 °F
N
0.0
Wind Variable Wind from ESE
Gusts 0.0 mph

Tomorrow is forecast to be Warmer than today.

Today
High -- | Low -- °F
--% Chance of Precip.
Yesterday
High -- | Low -- °F
Precip. -- in
5:47 AM 8:33 PM
Full, 100% visible
Pressure 30.05 in
Visibility 10.0 miles
Clouds Clear
Heat Index 90 °F
Dew Point 73 °F
Humidity 72%
Rainfall 0.00 in
Snow Depth Not available.
UV 0 out of 12
Pollen 3.70 out of 12
Air Quality Not available.
Flu Activity Sporadic
METAR KHAE 120035Z AUTO 10003KT 10SM CLR 28/21 A3005 RMK AO2

More Conditions Fewer Conditions

Pressure 30.05 in
Visibility 10.0 miles
Clouds Clear
Heat Index 90 °F
Dew Point 73 °F
Humidity 72%
Rainfall 0.00 in
Snow Depth Not available.
UV 0 out of 12
Pollen 3.70 out of 12
Air Quality Not available.
Flu Activity Sporadic
METAR KHAE 120035Z AUTO 10003KT 10SM CLR 28/21 A3005 RMK AO2

More Conditions Fewer Conditions

10-Day Weather Forecast

Almanac

Astronomy

Jul. 11, 2014 Rise Set
Actual Time 5:47 AM CDT 8:33 PM CDT
Civil Twilight 5:15 AM CDT 9:05 PM CDT
Nautical Twilight 4:35 AM CDT 9:44 PM CDT
Astronomical Twilight 3:50 AM CDT 10:30 PM CDT
Moon 7:44 PM CDT (7/11) 4:59 AM CDT (7/11)
Length of Visible Light 15h 49m
Length of Day
14h 45m
Tomorrow will be 1m 10s shorter.
Full, 100% of the Moon is Illuminated
Today
Full
Jul 12
Full
Jul 18
Last Quarter
Jul 26
New
Aug 3
First Quarter

Today's Extremes

State Highs State Lows

Community

WunderPhotos

Upload Photos

1,732,608 photos uploaded!

WunderBlogs® & News

Nearby

Snow Depth

Station Depth Elevation
No new snow has been reported.

Earthquake Activity

City Distance Mag. Time & Date
No recent earthquake activity has been reported nearby.
Minimum magnitude displayed is 2.5.

Coastal Water Temperatures

Place Temperature
No Stations Reporting

Nearby Weather Stations

Station Location Temp. Heat Index Dew Point Humidity Wind Precip. Elev Updated Type
N0YWD, Louisiana, MO 83.3 °F 90 °F 73 °F 72% ESE  at  0.0 mph 0.00 in / hr 525 ft 7:52 PM CDT Rapid Fire
North Eastern Ralls County WB2UFO, New London, MO 81.6 °F 88 °F 74 °F 79% ESE  at  1.0 mph 0.00 in / hr 700 ft 7:52 PM CDT Normal
Hannibal Area, Hannibal, MO 83.5 °F 86 °F 67 °F 58% NE  at  0.0 mph 0.00 in / hr 603 ft 7:52 PM CDT Rapid Fire
West of Downtown Barry, IL, Barry, IL 82.8 °F 88 °F 72 °F 70% SE  at  3.5 mph 0.00 in / hr 728 ft 7:52 PM CDT Rapid Fire

Show More Stations Show Fewer Stations